createdAt,value
2019-01-25T00:03:52.634Z,92.33
2019-01-25T00:08:55.266Z,92.27
2019-01-25T00:13:57.843Z,92.22
2019-01-25T00:19:00.517Z,92.18
2019-01-25T00:24:03.612Z,92.27
2019-01-25T00:29:06.267Z,92.23
2019-01-25T00:34:08.904Z,92.26
2019-01-25T00:39:11.580Z,92.17
2019-01-25T00:44:14.333Z,92.25
2019-01-25T00:49:16.810Z,92.20
2019-01-25T00:54:19.438Z,92.10
2019-01-25T00:59:21.988Z,91.90
2019-01-25T01:04:24.445Z,91.93
2019-01-25T01:09:26.996Z,92.21
2019-01-25T01:14:29.585Z,92.25
2019-01-25T01:19:32.105Z,92.23
2019-01-25T01:24:34.657Z,92.24
2019-01-25T01:29:37.394Z,92.32
2019-01-25T01:34:40.002Z,92.23
2019-01-25T01:39:42.561Z,92.22
2019-01-25T01:44:45.260Z,92.31
2019-01-25T01:49:47.908Z,92.38
2019-01-25T01:54:50.435Z,92.33
2019-01-25T01:59:53.121Z,92.41
2019-01-25T02:04:55.570Z,92.56
2019-01-25T02:09:58.026Z,92.68
2019-01-25T02:15:00.551Z,92.80
2019-01-25T02:20:04.802Z,92.88
2019-01-25T02:25:07.690Z,92.97
2019-01-25T02:30:13.457Z,93.00
2019-01-25T02:35:16.632Z,93.04
2019-01-25T02:40:21.595Z,92.96
2019-01-25T02:45:24.197Z,92.91
2019-01-25T02:50:26.761Z,92.93
2019-01-25T02:55:29.433Z,92.96
2019-01-25T03:00:31.962Z,92.74
2019-01-25T03:05:34.515Z,92.85
2019-01-25T03:10:37.306Z,92.88
2019-01-25T03:15:39.894Z,92.94
2019-01-25T03:20:42.618Z,92.80
2019-01-25T03:25:45.219Z,92.83
2019-01-25T03:30:47.652Z,92.83
2019-01-25T03:35:50.633Z,92.88
2019-01-25T03:40:55.118Z,92.88
2019-01-25T03:45:57.805Z,92.88
2019-01-25T03:51:00.424Z,92.79
2019-01-25T03:56:03.447Z,92.72
2019-01-25T04:01:06.080Z,92.62
2019-01-25T04:06:08.582Z,92.61
2019-01-25T04:11:11.130Z,92.57
2019-01-25T04:16:13.675Z,92.68
2019-01-25T04:21:16.278Z,92.54
2019-01-25T04:26:18.820Z,92.40
2019-01-25T04:31:21.276Z,92.44
2019-01-25T04:36:23.810Z,92.47
2019-01-25T04:41:26.381Z,92.50
2019-01-25T04:46:28.960Z,92.49
2019-01-25T04:51:31.525Z,92.44
2019-01-25T04:56:37.335Z,92.46
2019-01-25T05:01:39.839Z,92.26
2019-01-25T05:06:42.475Z,92.12
2019-01-25T05:11:44.974Z,91.97
2019-01-25T05:16:47.564Z,91.98
2019-01-25T05:21:50.151Z,92.03
2019-01-25T05:26:57.449Z,91.75
2019-01-25T05:32:04.555Z,91.60
2019-01-25T05:37:11.236Z,91.58
2019-01-25T05:42:13.703Z,91.49
2019-01-25T05:47:16.330Z,91.40
2019-01-25T05:52:20.180Z,91.32
2019-01-25T05:57:22.679Z,91.26
2019-01-25T06:02:25.284Z,91.23
2019-01-25T06:07:27.940Z,91.32
2019-01-25T06:12:30.365Z,91.34
2019-01-25T06:17:32.895Z,91.12
2019-01-25T06:22:35.600Z,91.22
2019-01-25T06:27:38.561Z,91.16
2019-01-25T06:32:41.206Z,91.16
2019-01-25T06:37:43.799Z,90.98
2019-01-25T06:42:46.231Z,90.78
2019-01-25T06:47:48.916Z,90.69
2019-01-25T06:52:51.469Z,90.55
2019-01-25T06:58:08.889Z,90.64
2019-01-25T07:03:11.549Z,90.76
2019-01-25T07:08:16.896Z,90.59
2019-01-25T07:13:19.358Z,90.77
2019-01-25T07:18:21.999Z,90.63
2019-01-25T07:23:24.394Z,90.70
2019-01-25T07:28:27.086Z,90.52
2019-01-25T07:33:29.609Z,90.58
2019-01-25T07:38:32.515Z,90.65
2019-01-25T07:43:35.141Z,90.63
2019-01-25T07:48:38.635Z,90.71
2019-01-25T07:53:41.355Z,90.69
2019-01-25T07:58:43.962Z,90.75
2019-01-25T08:03:46.614Z,90.78
2019-01-25T08:08:49.253Z,90.68
2019-01-25T08:13:51.946Z,90.68
2019-01-25T08:18:54.435Z,90.73
2019-01-25T08:23:56.944Z,90.73
2019-01-25T08:28:59.513Z,90.49
2019-01-25T08:34:02.094Z,90.46
2019-01-25T08:39:08.315Z,90.49
2019-01-25T08:44:10.915Z,90.49
2019-01-25T08:49:13.425Z,90.34
2019-01-25T08:54:16.154Z,90.72
2019-01-25T08:59:18.826Z,90.75
2019-01-25T09:04:21.514Z,90.88
2019-01-25T09:09:24.062Z,91.13
2019-01-25T09:14:26.550Z,91.43
2019-01-25T09:19:29.143Z,91.00
2019-01-25T09:24:31.652Z,91.08
2019-01-25T09:29:34.149Z,90.48
2019-01-25T09:34:36.684Z,90.51
2019-01-25T09:39:39.284Z,90.62
2019-01-25T09:44:41.934Z,90.59
2019-01-25T09:49:45.574Z,90.34
2019-01-25T09:54:48.202Z,90.17
2019-01-25T09:59:50.814Z,90.05
2019-01-25T10:04:54.065Z,89.87
2019-01-25T10:09:56.738Z,89.53
2019-01-25T10:14:59.424Z,89.29
2019-01-25T10:20:01.987Z,89.17
2019-01-25T10:25:05.795Z,88.94
2019-01-25T10:30:11.734Z,88.59
2019-01-25T10:35:14.380Z,88.21
2019-01-25T10:40:17.979Z,87.81
2019-01-25T10:45:24.813Z,87.88
2019-01-25T10:50:28.458Z,87.84
2019-01-25T10:55:31.104Z,87.37
2019-01-25T11:00:33.920Z,87.41
2019-01-25T11:05:36.581Z,86.90
2019-01-25T11:10:39.036Z,86.77
2019-01-25T11:15:41.506Z,87.16
2019-01-25T11:20:44.114Z,86.72
2019-01-25T11:25:46.670Z,86.84
2019-01-25T11:30:49.522Z,86.90
2019-01-25T11:35:52.174Z,87.03
2019-01-25T11:40:54.722Z,87.18
2019-01-25T11:45:57.490Z,86.64
2019-01-25T11:51:00.959Z,86.31
2019-01-25T11:56:04.155Z,86.33
2019-01-25T12:01:06.945Z,86.33
2019-01-25T12:06:09.691Z,86.28
2019-01-25T12:11:12.459Z,85.37
2019-01-25T12:16:15.054Z,85.58
2019-01-25T12:21:17.794Z,85.40
2019-01-25T12:26:20.654Z,84.96
2019-01-25T12:31:23.319Z,85.46
2019-01-25T12:36:25.779Z,85.79
2019-01-25T12:41:28.584Z,85.92
2019-01-25T12:46:32.129Z,85.53
2019-01-25T12:51:42.799Z,85.48
2019-01-25T12:56:45.480Z,85.96
2019-01-25T13:01:49.944Z,86.31
2019-01-25T13:06:52.474Z,85.24
2019-01-25T13:11:54.924Z,84.63
2019-01-25T13:16:57.706Z,84.32
2019-01-25T13:22:00.342Z,84.24
2019-01-25T13:27:03.154Z,83.59
2019-01-25T13:32:05.710Z,83.19
2019-01-25T13:37:08.335Z,83.32
2019-01-25T13:42:11.416Z,83.25
2019-01-25T13:47:13.954Z,83.16
2019-01-25T13:52:16.714Z,83.46
2019-01-25T13:57:19.656Z,84.17
2019-01-25T14:02:22.355Z,84.48
2019-01-25T14:07:24.927Z,85.02
2019-01-25T14:12:27.486Z,85.18
2019-01-25T14:17:30.206Z,85.55
2019-01-25T14:22:32.869Z,85.68
2019-01-25T14:27:35.467Z,85.96
2019-01-25T14:32:38.149Z,86.07
2019-01-25T14:37:40.706Z,86.15
2019-01-25T14:42:43.200Z,85.99
2019-01-25T14:47:45.729Z,85.77
2019-01-25T14:52:49.414Z,85.91
2019-01-25T14:57:52.370Z,85.81
2019-01-25T15:02:54.989Z,85.74
2019-01-25T15:07:57.430Z,85.50
2019-01-25T15:12:59.926Z,85.36
2019-01-25T15:18:02.594Z,85.26
2019-01-25T15:23:05.176Z,85.04
2019-01-25T15:28:07.764Z,84.80
2019-01-25T15:33:10.250Z,84.65
2019-01-25T15:38:12.769Z,84.55
2019-01-25T15:43:15.382Z,84.43
2019-01-25T15:48:17.989Z,84.31
2019-01-25T15:53:20.590Z,84.60
2019-01-25T15:58:23.119Z,84.82
2019-01-25T16:03:25.740Z,84.86
2019-01-25T16:08:28.546Z,84.75
2019-01-25T16:13:31.190Z,84.87
2019-01-25T16:18:33.821Z,84.97
2019-01-25T16:23:36.365Z,85.01
2019-01-25T16:28:39.044Z,85.09
2019-01-25T16:33:41.539Z,85.35
2019-01-25T16:38:44.018Z,85.38
2019-01-25T16:43:46.795Z,85.45
2019-01-25T16:48:49.434Z,85.62
2019-01-25T16:53:52.078Z,85.76
2019-01-25T16:58:54.653Z,85.67
2019-01-25T17:03:57.327Z,85.76
2019-01-25T17:09:01.566Z,85.80
2019-01-25T17:14:04.494Z,86.06
2019-01-25T17:19:07.067Z,86.16
2019-01-25T17:24:09.640Z,86.40
2019-01-25T17:29:12.185Z,86.47
2019-01-25T17:34:14.867Z,86.57
2019-01-25T17:39:17.805Z,86.94
2019-01-25T17:44:20.509Z,87.25
2019-01-25T17:49:23.159Z,87.17
2019-01-25T17:54:26.080Z,87.03
2019-01-25T17:59:28.688Z,87.06
2019-01-25T18:04:31.454Z,87.09
2019-01-25T18:09:34.129Z,87.14
2019-01-25T18:14:36.718Z,87.39
2019-01-25T18:19:39.499Z,87.54
2019-01-25T18:24:42.458Z,87.58
2019-01-25T18:29:49.542Z,87.78
2019-01-25T18:34:52.262Z,88.14
2019-01-25T18:39:54.895Z,88.21
2019-01-25T18:44:57.469Z,88.36
2019-01-25T18:50:00.192Z,88.41
2019-01-25T18:55:04.932Z,88.35
2019-01-25T19:00:11.598Z,88.06
2019-01-25T19:05:14.519Z,88.11
2019-01-25T19:10:19.763Z,88.14
2019-01-25T19:15:25.206Z,87.88
2019-01-25T19:20:28.116Z,87.93
2019-01-25T19:25:30.711Z,88.17
2019-01-25T19:30:36.199Z,88.38
2019-01-25T19:35:38.809Z,88.89
2019-01-25T19:40:41.489Z,89.08
2019-01-25T19:45:44.034Z,88.94
2019-01-25T19:50:46.690Z,88.88
2019-01-25T19:55:49.419Z,88.98
2019-01-25T20:00:52.045Z,88.89
2019-01-25T20:05:54.675Z,89.00
2019-01-25T20:10:57.495Z,89.05
2019-01-25T20:16:00.074Z,89.26
2019-01-25T20:21:03.611Z,89.00
2019-01-25T20:26:06.360Z,88.92
2019-01-25T20:31:08.955Z,89.07
2019-01-25T20:36:11.519Z,89.43
2019-01-25T20:41:14.094Z,89.66
2019-01-25T20:46:16.509Z,89.51
2019-01-25T20:51:19.118Z,89.51
2019-01-25T20:56:21.708Z,89.39
2019-01-25T21:01:24.348Z,89.39
2019-01-25T21:06:26.904Z,89.34
2019-01-25T21:11:29.385Z,89.49
2019-01-25T21:16:31.889Z,89.50
2019-01-25T21:21:34.530Z,89.52
2019-01-25T21:26:37.169Z,89.59
2019-01-25T21:31:39.679Z,89.54
2019-01-25T21:36:42.209Z,89.48
2019-01-25T21:41:44.775Z,89.46
2019-01-25T21:46:48.350Z,89.11
2019-01-25T21:51:51.118Z,89.34
2019-01-25T21:56:54.563Z,89.56
2019-01-25T22:01:57.042Z,89.70
2019-01-25T22:06:59.690Z,89.75
2019-01-25T22:12:02.393Z,89.95
2019-01-25T22:17:05.078Z,89.92
2019-01-25T22:22:07.763Z,89.83
2019-01-25T22:27:10.428Z,89.72
2019-01-25T22:32:12.967Z,89.72
2019-01-25T22:37:15.521Z,89.78
2019-01-25T22:42:18.077Z,89.67
2019-01-25T22:47:20.762Z,89.76
2019-01-25T22:52:23.310Z,89.63
2019-01-25T22:57:27.006Z,89.41
2019-01-25T23:02:29.647Z,89.35
2019-01-25T23:07:33.115Z,89.54
2019-01-25T23:12:36.111Z,89.61
2019-01-25T23:17:38.526Z,89.89
2019-01-25T23:22:41.074Z,90.07
2019-01-25T23:27:43.708Z,90.18
2019-01-25T23:32:46.310Z,89.72
2019-01-25T23:37:48.905Z,89.67
2019-01-25T23:42:51.684Z,89.62
2019-01-25T23:47:54.154Z,89.60
2019-01-25T23:52:56.694Z,89.73
2019-01-25T23:57:59.439Z,89.96
